• Join FlightAware (Why Join?)
  • Login
  • US Flag 
11:43PM EDT


 

Airport Tracker/Info


-or-


 

Live Flight TrackerFlight Track Log ✈ GTH126 ✈ 09-May-2013 ✈ KPNE - KTEB

Flight Track Log - Related Links

Times and Time Zones

All times are in EDT time to prevent confusion due to time zone crossing. See the GTH126 flight status page for this flight to view local times or setup timezone preferences in your user account.

Time Position Orientation Groundspeed Altitude Reporting Facility
EDT Latitude Longitude Course Direction KTS MPH feet Rate Location/Type
06:50PM 40.1500 -75.0500 336° Northwest 223 257 3,100  Level Philadelphia TRACON
06:51PM 40.1833 -75.0667 339° North 253 291 3,800 540 Climbing New York TRACON
06:52PM 40.2500 -75.0500 11° North 260 299 4,000 60 Climbing New York TRACON
06:53PM 40.3167 -74.9833 37° Northeast 271 312 4,000  Level New York TRACON
06:54PM 40.3833 -74.9333 30° Northeast 267 307 4,000  Level New York TRACON
06:55PM 40.4333 -74.8833 37° Northeast 269 310 4,000  Level New York TRACON
06:56PM 40.5000 -74.8333 30° Northeast 272 313 4,000  Level New York TRACON
06:57PM 40.5500 -74.7667 45° Northeast 274 315 4,000  Level New York TRACON
06:58PM 40.6167 -74.7167 30° Northeast 268 308 4,000  Level New York TRACON
06:59PM 40.6833 -74.6667 30° Northeast 274 315 4,000  Level New York TRACON
07:00PM 40.7500 -74.6333 21° North 268 308 4,000  Level New York TRACON
07:01PM 40.8167 -74.5833 30° Northeast 267 307 4,000  Level New York TRACON
07:02PM 40.8833 -74.5333 30° Northeast 260 299 4,000  Level New York TRACON
07:03PM 40.9333 -74.4500 52° Northeast 270 311 4,000 -180 Level New York TRACON
07:04PM 40.9833 -74.3833 45° Northeast 272 313 3,700 -540 Descending New York TRACON
07:05PM 41.0167 -74.3000 62° Northeast 264 304 3,000 -480 Descending New York TRACON
07:06PM 41.0333 -74.2167 75° East 230 265 2,800 -540 Descending New York TRACON
07:07PM 41.0167 -74.1500 108° East 211 243 2,000 -420 Descending New York TRACON
07:08PM 41.0000 -74.0833 108° East 188 216 2,000  Level New York TRACON
07:09PM 40.9500 -74.0500 153° Southeast 166 191 2,000 -480 Level New York TRACON
07:10PM 40.9000 -74.0500 180° South 157 181 1,100 -900 Descending New York TRACON
07:11PM 40.8667 -74.0500 180° South 134 154 300 -840 Descending New York TRACON
07:13PM 40.8500 -74.0500 180° South  Level FlightAware Approximate
07:20PM 40.8501 -74.0608 180° South  Level Estimated